Terminal Aerodrome Forecast
Issued by NWS

Home | Current Version | Previous Version | Graphics & Text | Print | Product List | Glossary On
Versions: 1 2 3 4 5 6 7 8 9 10 11 12 13 14 15 16 17 18 19 20
698
FTUS43 KMPX 211140
TAFRWF
TAF
KRWF 211140Z 2112/2212 08006KT 1/4SM -DZ FG VV002
     FM211500 11005KT 3/4SM -RA BR OVC002
     FM211700 VRB03KT 1 1/2SM BR OVC003
     FM220200 VRB02KT 1/4SM FG VV002=

USA.gov is the U.S. government's official web portal to all federal, state and local government web resources and services.